createdAt,value
2023-02-06T00:01:50.566Z,1.60
2023-02-06T00:04:20.609Z,1.90
2023-02-06T00:06:49.686Z,2.10
2023-02-06T00:09:18.174Z,1.80
2023-02-06T00:11:46.664Z,1.90
2023-02-06T00:14:15.704Z,1.88
2023-02-06T00:16:44.187Z,1.80
2023-02-06T00:19:12.889Z,1.77
2023-02-06T00:21:42.973Z,1.80
2023-02-06T00:24:11.451Z,2.00
2023-02-06T00:26:40.112Z,1.88
2023-02-06T00:29:08.773Z,2.13
2023-02-06T00:31:40.805Z,2.72
2023-02-06T00:34:09.342Z,2.70
2023-02-06T00:36:38.091Z,2.97
2023-02-06T00:39:07.938Z,3.00
2023-02-06T00:41:36.401Z,3.40
2023-02-06T00:44:04.910Z,3.30
2023-02-06T00:46:33.498Z,3.88
2023-02-06T00:49:02.012Z,3.92
2023-02-06T00:51:30.525Z,4.03
2023-02-06T00:54:01.531Z,3.90
2023-02-06T00:56:31.406Z,3.78
2023-02-06T00:58:59.865Z,4.32
2023-02-06T01:01:29.033Z,4.55
2023-02-06T01:03:57.645Z,4.57
2023-02-06T01:06:26.441Z,4.43
2023-02-06T01:08:54.998Z,4.85
2023-02-06T01:11:26.266Z,4.90
2023-02-06T01:13:56.714Z,4.93
2023-02-06T01:16:26.556Z,5.32
2023-02-06T01:18:55.443Z,5.15
2023-02-06T01:21:25.801Z,4.75
2023-02-06T01:23:56.327Z,4.80
2023-02-06T01:26:28.386Z,4.95
2023-02-06T01:28:58.498Z,4.28
2023-02-06T01:31:29.139Z,3.95
2023-02-06T01:34:00.271Z,4.70
2023-02-06T01:36:29.457Z,4.55
2023-02-06T01:38:57.951Z,4.38
2023-02-06T01:41:26.881Z,3.85
2023-02-06T01:44:22.104Z,3.80
2023-02-06T01:46:53.342Z,4.25
2023-02-06T01:49:25.279Z,4.25
2023-02-06T01:51:55.929Z,4.18
2023-02-06T01:54:24.917Z,4.10
2023-02-06T01:56:58.261Z,4.07
2023-02-06T01:59:28.699Z,4.70
2023-02-06T02:01:57.740Z,4.25
2023-02-06T02:04:29.768Z,3.22
2023-02-06T02:07:08.534Z,3.08
2023-02-06T02:09:37.056Z,3.80
2023-02-06T02:12:06.062Z,3.33
2023-02-06T02:14:37.328Z,3.50
2023-02-06T02:17:26.110Z,3.65
2023-02-06T02:20:34.637Z,4.07
2023-02-06T02:23:14.732Z,3.75
2023-02-06T02:26:13.535Z,3.80
2023-02-06T02:29:16.874Z,4.07
2023-02-06T02:32:39.287Z,4.93
2023-02-06T02:35:35.657Z,4.30
2023-02-06T02:38:17.730Z,4.22
2023-02-06T02:40:54.638Z,4.65
2023-02-06T02:43:35.351Z,4.70
2023-02-06T02:46:11.767Z,5.05
2023-02-06T02:48:43.412Z,4.63
2023-02-06T02:51:13.723Z,4.30
2023-02-06T02:53:42.168Z,4.50
2023-02-06T02:56:20.749Z,3.58
2023-02-06T02:58:53.530Z,3.65
2023-02-06T03:01:29.047Z,4.03
2023-02-06T03:04:01.591Z,4.38
2023-02-06T03:07:01.070Z,3.97
2023-02-06T03:09:46.428Z,4.05
2023-02-06T03:12:23.415Z,3.72
2023-02-06T03:14:57.668Z,3.63
2023-02-06T03:17:34.713Z,3.65
2023-02-06T03:20:06.740Z,3.67
2023-02-06T03:22:38.531Z,4.40
2023-02-06T03:25:14.098Z,4.95
2023-02-06T03:27:44.720Z,4.45
2023-02-06T03:30:16.134Z,3.95
2023-02-06T03:32:48.678Z,3.92
2023-02-06T03:35:21.366Z,5.00
2023-02-06T03:37:51.830Z,5.00
2023-02-06T03:40:20.983Z,4.18
2023-02-06T03:42:54.234Z,4.40
2023-02-06T03:45:29.948Z,4.43
2023-02-06T03:48:03.513Z,4.07
2023-02-06T03:50:34.333Z,4.15
2023-02-06T03:53:05.413Z,4.50
2023-02-06T03:55:34.108Z,4.38
2023-02-06T03:58:08.005Z,4.18
2023-02-06T04:00:38.815Z,3.40
2023-02-06T04:03:08.187Z,3.33
2023-02-06T04:05:37.080Z,3.50
2023-02-06T04:08:07.638Z,3.80
2023-02-06T04:10:36.084Z,3.38
2023-02-06T04:13:04.544Z,3.67
2023-02-06T04:15:33.028Z,5.07
2023-02-06T04:18:02.062Z,7.55
2023-02-06T04:20:31.337Z,4.68
2023-02-06T04:23:00.183Z,4.07
2023-02-06T04:25:30.325Z,3.58
2023-02-06T04:27:59.203Z,4.00
2023-02-06T04:30:27.936Z,4.07
2023-02-06T04:32:56.401Z,3.97
2023-02-06T04:35:25.134Z,3.42
2023-02-06T04:37:54.368Z,7.30
2023-02-06T04:40:23.172Z,6.68
2023-02-06T04:42:52.996Z,6.07
2023-02-06T04:45:21.642Z,6.32
2023-02-06T04:47:50.399Z,5.38
2023-02-06T04:50:19.574Z,4.70
2023-02-06T04:52:47.991Z,4.40
2023-02-06T04:55:16.472Z,4.70
2023-02-06T04:57:45.888Z,4.53
2023-02-06T05:00:17.578Z,4.32
2023-02-06T05:02:46.094Z,4.47
2023-02-06T05:05:15.270Z,4.85
2023-02-06T05:07:43.693Z,4.82
2023-02-06T05:10:12.146Z,5.10
2023-02-06T05:12:40.782Z,5.35
2023-02-06T05:15:11.021Z,5.32
2023-02-06T05:17:40.825Z,5.68
2023-02-06T05:20:10.242Z,5.10
2023-02-06T05:22:38.769Z,4.95
2023-02-06T05:25:08.187Z,5.32
2023-02-06T05:27:36.613Z,5.38
2023-02-06T05:30:05.877Z,5.88
2023-02-06T05:32:34.285Z,5.25
2023-02-06T05:35:04.186Z,5.28
2023-02-06T05:37:32.627Z,5.80
2023-02-06T05:40:01.162Z,5.70
2023-02-06T05:42:29.802Z,5.50
2023-02-06T05:45:01.634Z,5.40
2023-02-06T05:47:30.099Z,5.70
2023-02-06T05:49:58.503Z,5.93
2023-02-06T05:52:28.325Z,6.15
2023-02-06T05:54:56.854Z,5.78
2023-02-06T05:57:25.369Z,5.60
2023-02-06T05:59:53.814Z,5.43
2023-02-06T06:02:22.430Z,5.93
2023-02-06T06:04:50.925Z,6.07
2023-02-06T06:07:20.228Z,5.82
2023-02-06T06:09:50.294Z,5.43
2023-02-06T06:12:18.689Z,6.15
2023-02-06T06:14:47.413Z,5.85
2023-02-06T06:17:16.566Z,6.20
2023-02-06T06:19:45.040Z,5.80
2023-02-06T06:22:13.552Z,5.63
2023-02-06T06:24:42.046Z,5.70
2023-02-06T06:27:11.909Z,5.90
2023-02-06T06:29:40.332Z,4.60
2023-02-06T06:32:08.850Z,5.78
2023-02-06T06:34:37.255Z,7.45
2023-02-06T06:37:05.906Z,5.75
2023-02-06T06:39:34.301Z,5.05
2023-02-06T06:42:04.447Z,6.00
2023-02-06T06:44:34.328Z,5.53
2023-02-06T06:47:03.009Z,5.75
2023-02-06T06:49:31.474Z,10.02
2023-02-06T06:51:59.934Z,11.43
2023-02-06T06:54:28.452Z,5.03
2023-02-06T06:56:56.889Z,5.30
2023-02-06T06:59:25.327Z,8.18
2023-02-06T07:01:55.157Z,7.75
2023-02-06T07:04:24.138Z,5.65
2023-02-06T07:06:52.582Z,4.70
2023-02-06T07:09:21.020Z,8.68
2023-02-06T07:11:49.446Z,6.65
2023-02-06T07:14:17.963Z,6.05
2023-02-06T07:16:47.257Z,5.80
2023-02-06T07:19:17.289Z,6.40
2023-02-06T07:21:45.788Z,5.72
2023-02-06T07:24:14.293Z,6.05
2023-02-06T07:26:43.358Z,5.70
2023-02-06T07:29:12.184Z,5.25
2023-02-06T07:31:40.896Z,5.32
2023-02-06T07:34:09.391Z,5.18
2023-02-06T07:36:39.421Z,5.30
2023-02-06T07:39:07.889Z,5.45
2023-02-06T07:41:36.532Z,5.63
2023-02-06T07:44:05.544Z,5.40
2023-02-06T07:46:34.618Z,6.25
2023-02-06T07:49:03.161Z,5.82
2023-02-06T07:51:31.595Z,5.72
2023-02-06T07:54:01.400Z,5.25
2023-02-06T07:56:30.009Z,4.50
2023-02-06T07:58:58.495Z,4.78
2023-02-06T08:01:27.480Z,5.20
2023-02-06T08:03:56.703Z,5.43
2023-02-06T08:06:26.470Z,5.15
2023-02-06T08:08:57.148Z,4.30
2023-02-06T08:11:30.330Z,4.78
2023-02-06T08:13:59.913Z,4.65
2023-02-06T08:16:28.419Z,5.13
2023-02-06T08:18:56.840Z,3.75
2023-02-06T08:21:26.838Z,4.22
2023-02-06T08:23:56.135Z,4.38
2023-02-06T08:26:28.072Z,4.00
2023-02-06T08:28:58.862Z,4.25
2023-02-06T08:31:31.079Z,5.20
2023-02-06T08:33:59.667Z,4.82
2023-02-06T08:36:31.844Z,4.32
2023-02-06T08:39:02.276Z,4.07
2023-02-06T08:41:37.081Z,3.85
2023-02-06T08:44:12.252Z,4.68
2023-02-06T08:46:41.802Z,4.05
2023-02-06T08:49:15.272Z,4.40
2023-02-06T08:51:44.624Z,3.85
2023-02-06T08:54:15.817Z,4.20
2023-02-06T08:56:45.848Z,5.65
2023-02-06T08:59:15.991Z,4.72
2023-02-06T09:01:45.798Z,4.18
2023-02-06T09:04:15.900Z,4.38
2023-02-06T09:06:46.534Z,3.42
2023-02-06T09:09:15.146Z,4.50
2023-02-06T09:11:45.696Z,4.07
2023-02-06T09:14:18.526Z,3.95
2023-02-06T09:16:47.036Z,5.15
2023-02-06T09:19:15.621Z,3.95
2023-02-06T09:21:44.713Z,3.97
2023-02-06T09:24:13.172Z,3.85
2023-02-06T09:26:58.957Z,4.03
2023-02-06T09:29:29.198Z,3.97
2023-02-06T09:31:58.505Z,4.53
2023-02-06T09:34:27.877Z,4.13
2023-02-06T09:36:56.978Z,3.67
2023-02-06T09:39:25.862Z,3.80
2023-02-06T09:41:58.702Z,4.43
2023-02-06T09:44:33.693Z,4.90
2023-02-06T09:47:08.386Z,5.03
2023-02-06T09:49:41.218Z,5.95
2023-02-06T09:52:37.708Z,5.75
2023-02-06T09:55:16.288Z,5.80
2023-02-06T09:57:54.232Z,4.78
2023-02-06T10:00:38.761Z,4.70
2023-02-06T10:03:44.945Z,4.47
2023-02-06T10:06:20.220Z,4.82
2023-02-06T10:08:58.918Z,5.07
2023-02-06T10:11:40.437Z,5.03
2023-02-06T10:14:19.234Z,5.57
2023-02-06T10:16:53.078Z,5.03
2023-02-06T10:19:30.757Z,5.60
2023-02-06T10:22:07.011Z,5.65
2023-02-06T10:24:43.092Z,5.50
2023-02-06T10:27:15.316Z,4.50
2023-02-06T10:29:47.902Z,4.95
2023-02-06T10:32:32.021Z,5.18
2023-02-06T10:35:26.936Z,4.93
2023-02-06T10:38:26.902Z,5.90
2023-02-06T10:41:01.569Z,5.53
2023-02-06T10:43:42.219Z,5.45
2023-02-06T10:46:38.783Z,5.60
2023-02-06T10:49:24.986Z,5.32
2023-02-06T10:51:57.681Z,5.50
2023-02-06T10:54:31.641Z,5.28
2023-02-06T10:57:01.346Z,4.40
2023-02-06T10:59:33.948Z,4.78
2023-02-06T11:02:24.173Z,5.90
2023-02-06T11:04:59.881Z,5.70
2023-02-06T11:07:32.769Z,5.43
2023-02-06T11:10:01.396Z,5.07
2023-02-06T11:12:35.552Z,5.47
2023-02-06T11:15:10.083Z,4.57
2023-02-06T11:17:39.911Z,5.35
2023-02-06T11:20:22.001Z,5.43
2023-02-06T11:22:53.333Z,5.13
2023-02-06T11:25:29.996Z,5.40
2023-02-06T11:27:59.378Z,5.22
2023-02-06T11:30:35.679Z,4.88
2023-02-06T11:33:09.174Z,4.60
2023-02-06T11:35:41.477Z,5.20
2023-02-06T11:38:17.166Z,5.55
2023-02-06T11:40:55.963Z,6.10
2023-02-06T11:43:26.677Z,5.43
2023-02-06T11:46:14.622Z,5.78
2023-02-06T11:48:46.728Z,5.65
2023-02-06T11:51:16.913Z,5.80
2023-02-06T11:54:04.855Z,6.30
2023-02-06T11:56:33.744Z,5.97
2023-02-06T11:59:19.504Z,5.75
2023-02-06T12:01:49.311Z,6.00
2023-02-06T12:04:25.132Z,6.53
2023-02-06T12:07:04.724Z,6.47
2023-02-06T12:09:33.171Z,6.78
2023-02-06T12:12:09.415Z,6.07
2023-02-06T12:14:43.703Z,6.10
2023-02-06T12:17:26.978Z,6.40
2023-02-06T12:20:05.003Z,6.15
2023-02-06T12:22:41.491Z,6.57
2023-02-06T12:25:27.951Z,6.57
2023-02-06T12:28:05.567Z,9.10
2023-02-06T12:30:42.181Z,9.25
2023-02-06T12:33:17.111Z,7.07
2023-02-06T12:35:50.442Z,7.15
2023-02-06T12:38:42.225Z,6.60
2023-02-06T12:41:26.254Z,7.55
2023-02-06T12:44:00.811Z,6.97
2023-02-06T12:46:30.929Z,6.70
2023-02-06T12:49:17.446Z,6.70
2023-02-06T12:51:55.658Z,6.53
2023-02-06T12:54:30.577Z,6.88
2023-02-06T12:57:05.496Z,6.85
2023-02-06T13:00:07.603Z,6.53
2023-02-06T13:03:03.851Z,7.00
2023-02-06T13:05:39.688Z,6.70
2023-02-06T13:08:14.172Z,6.38
2023-02-06T13:10:43.234Z,7.60
2023-02-06T13:13:28.769Z,7.80
2023-02-06T13:16:00.480Z,7.57
2023-02-06T13:18:54.735Z,10.23
2023-02-06T13:21:28.718Z,10.35
2023-02-06T13:24:21.140Z,9.98
2023-02-06T13:27:19.907Z,6.30
2023-02-06T13:29:49.608Z,6.78
2023-02-06T13:32:45.231Z,7.00
2023-02-06T13:35:28.250Z,8.32
2023-02-06T13:38:25.977Z,7.88
2023-02-06T13:41:27.742Z,7.63
2023-02-06T13:44:00.810Z,7.80
2023-02-06T13:46:57.882Z,8.75
2023-02-06T13:50:13.587Z,8.77
2023-02-06T13:52:53.635Z,7.20
2023-02-06T13:55:38.857Z,8.57
2023-02-06T13:58:42.547Z,6.80
2023-02-06T14:01:20.100Z,6.15
2023-02-06T14:03:51.818Z,5.63
2023-02-06T14:06:49.887Z,5.43
2023-02-06T14:09:55.926Z,5.32
2023-02-06T14:12:44.647Z,4.53
2023-02-06T14:15:26.994Z,4.57
2023-02-06T14:18:29.626Z,4.20
2023-02-06T14:21:11.553Z,5.07
2023-02-06T14:24:17.443Z,3.65
2023-02-06T14:27:00.964Z,3.30
2023-02-06T14:29:43.907Z,3.90
2023-02-06T14:32:45.324Z,4.80
2023-02-06T14:35:44.747Z,3.80
2023-02-06T14:38:49.342Z,3.80
2023-02-06T14:41:18.767Z,3.67
2023-02-06T14:43:50.114Z,4.03
2023-02-06T14:46:20.709Z,3.22
2023-02-06T14:48:53.978Z,3.70
2023-02-06T14:51:27.572Z,3.97
2023-02-06T14:54:00.424Z,4.38
2023-02-06T14:56:32.532Z,3.97
2023-02-06T14:59:16.929Z,3.95
2023-02-06T15:01:48.695Z,4.47
2023-02-06T15:04:21.963Z,4.10
2023-02-06T15:06:54.881Z,4.40
2023-02-06T15:09:29.721Z,4.70
2023-02-06T15:12:01.330Z,4.82
2023-02-06T15:14:32.345Z,4.88
2023-02-06T15:17:02.674Z,4.00
2023-02-06T15:19:35.724Z,4.40
2023-02-06T15:22:07.720Z,4.65
2023-02-06T15:25:09.245Z,4.78
2023-02-06T15:27:39.563Z,4.25
2023-02-06T15:30:21.998Z,4.47
2023-02-06T15:32:54.168Z,4.72
2023-02-06T15:35:27.435Z,4.80
2023-02-06T15:37:57.030Z,3.90
2023-02-06T15:40:31.898Z,4.80
2023-02-06T15:43:01.428Z,4.20
2023-02-06T15:45:35.872Z,4.20
2023-02-06T15:48:14.717Z,4.38
2023-02-06T15:50:58.093Z,4.28
2023-02-06T15:53:34.534Z,4.75
2023-02-06T15:56:05.258Z,5.40
2023-02-06T15:58:35.149Z,6.00
2023-02-06T16:01:05.808Z,5.15
2023-02-06T16:03:34.405Z,5.60
2023-02-06T16:06:14.718Z,5.32
2023-02-06T16:08:50.215Z,4.40
2023-02-06T16:11:36.931Z,5.47
2023-02-06T16:14:06.754Z,4.75
2023-02-06T16:16:35.338Z,5.32
2023-02-06T16:19:44.755Z,10.82
2023-02-06T16:22:27.536Z,7.35
2023-02-06T16:25:14.106Z,14.88
2023-02-06T16:27:46.471Z,5.80
2023-02-06T16:30:28.246Z,5.25
2023-02-06T16:32:58.919Z,5.28
2023-02-06T16:35:28.044Z,6.95
2023-02-06T16:37:58.143Z,9.70
2023-02-06T16:40:27.182Z,7.47
2023-02-06T16:42:56.125Z,6.07
2023-02-06T16:45:28.014Z,6.85
2023-02-06T16:47:56.985Z,6.35
2023-02-06T16:50:25.445Z,6.78
2023-02-06T16:52:59.883Z,6.10
2023-02-06T16:55:28.893Z,4.50
2023-02-06T16:58:01.310Z,5.13
2023-02-06T17:00:32.532Z,5.63
2023-02-06T17:03:02.043Z,4.88
2023-02-06T17:05:31.626Z,5.35
2023-02-06T17:08:03.928Z,4.22
2023-02-06T17:10:32.353Z,4.88
2023-02-06T17:13:00.745Z,5.00
2023-02-06T17:15:29.313Z,4.45
2023-02-06T17:17:57.799Z,4.85
2023-02-06T17:20:33.783Z,4.90
2023-02-06T17:23:04.173Z,4.85
2023-02-06T17:25:32.984Z,5.75
2023-02-06T17:28:01.691Z,5.70
2023-02-06T17:30:30.601Z,4.60
2023-02-06T17:32:59.074Z,5.10
2023-02-06T17:35:28.460Z,4.40
2023-02-06T17:37:56.943Z,4.97
2023-02-06T17:40:31.058Z,3.42
2023-02-06T17:43:03.162Z,3.38
2023-02-06T17:45:33.176Z,3.67
2023-02-06T17:48:02.252Z,3.33
2023-02-06T17:50:31.482Z,3.08
2023-02-06T17:53:00.621Z,3.22
2023-02-06T17:55:30.864Z,3.38
2023-02-06T17:57:59.556Z,3.60
2023-02-06T18:00:28.548Z,4.22
2023-02-06T18:03:00.145Z,5.05
2023-02-06T18:05:28.691Z,3.72
2023-02-06T18:07:57.175Z,3.05
2023-02-06T18:10:26.632Z,3.20
2023-02-06T18:12:57.588Z,3.42
2023-02-06T18:15:26.038Z,3.20
2023-02-06T18:17:54.966Z,2.90
2023-02-06T18:20:23.551Z,3.15
2023-02-06T18:22:52.237Z,3.35
2023-02-06T18:25:20.977Z,4.10
2023-02-06T18:27:49.501Z,3.90
2023-02-06T18:30:19.412Z,3.15
2023-02-06T18:32:48.392Z,3.42
2023-02-06T18:35:17.051Z,3.08
2023-02-06T18:37:45.538Z,3.20
2023-02-06T18:40:14.240Z,3.10
2023-02-06T18:42:55.002Z,3.45
2023-02-06T18:45:31.225Z,2.90
2023-02-06T18:48:01.193Z,3.08
2023-02-06T18:50:30.767Z,3.28
2023-02-06T18:52:59.569Z,2.65
2023-02-06T18:55:28.559Z,3.03
2023-02-06T18:57:57.185Z,3.00
2023-02-06T19:00:27.287Z,2.80
2023-02-06T19:02:56.124Z,2.90
2023-02-06T19:05:24.848Z,2.80
2023-02-06T19:07:54.592Z,2.70
2023-02-06T19:10:23.812Z,2.80
2023-02-06T19:12:52.323Z,2.60
2023-02-06T19:15:21.139Z,3.00
2023-02-06T19:17:51.297Z,2.53
2023-02-06T19:20:20.316Z,2.75
2023-02-06T19:22:48.773Z,3.08
2023-02-06T19:25:19.115Z,2.65
2023-02-06T19:27:47.642Z,2.80
2023-02-06T19:30:16.589Z,2.85
2023-02-06T19:32:44.995Z,2.38
2023-02-06T19:35:15.737Z,2.30
2023-02-06T19:37:44.248Z,2.30
2023-02-06T19:40:13.215Z,2.83
2023-02-06T19:42:41.687Z,2.50
2023-02-06T19:45:10.706Z,2.60
2023-02-06T19:47:39.178Z,3.05
2023-02-06T19:50:08.679Z,3.25
2023-02-06T19:52:38.504Z,2.63
2023-02-06T19:55:08.296Z,2.40
2023-02-06T19:57:39.595Z,2.85
2023-02-06T20:00:10.398Z,2.53
2023-02-06T20:02:40.355Z,2.40
2023-02-06T20:05:10.074Z,2.78
2023-02-06T20:07:39.874Z,2.67
2023-02-06T20:10:09.210Z,2.53
2023-02-06T20:12:37.865Z,2.72
2023-02-06T20:15:07.045Z,2.83
2023-02-06T20:17:35.561Z,3.88
2023-02-06T20:20:04.547Z,5.45
2023-02-06T20:22:34.454Z,3.88
2023-02-06T20:25:04.368Z,3.72
2023-02-06T20:27:32.815Z,3.03
2023-02-06T20:30:01.217Z,3.30
2023-02-06T20:32:29.674Z,3.17
2023-02-06T20:34:59.435Z,3.13
2023-02-06T20:37:28.576Z,3.05
2023-02-06T20:39:57.278Z,3.45
2023-02-06T20:42:28.987Z,3.47
2023-02-06T20:44:57.450Z,3.97
2023-02-06T20:47:26.317Z,3.67
2023-02-06T20:49:55.078Z,3.90
2023-02-06T20:52:23.474Z,3.80
2023-02-06T20:54:52.157Z,3.50
2023-02-06T20:57:22.405Z,3.63
2023-02-06T20:59:52.301Z,4.18
2023-02-06T21:02:21.037Z,4.07
2023-02-06T21:04:52.347Z,6.35
2023-02-06T21:07:21.211Z,7.85
2023-02-06T21:09:50.457Z,46.85
2023-02-06T21:12:18.886Z,28.73
2023-02-06T21:14:47.509Z,52.88
2023-02-06T21:17:17.418Z,33.80
2023-02-06T21:19:45.866Z,6.18
2023-02-06T21:22:14.306Z,6.28
2023-02-06T21:24:42.722Z,5.30
2023-02-06T21:27:11.365Z,5.47
2023-02-06T21:29:39.776Z,5.20
2023-02-06T21:32:13.946Z,5.68
2023-02-06T21:34:44.582Z,5.97
2023-02-06T21:37:13.073Z,6.40
2023-02-06T21:39:42.254Z,6.53
2023-02-06T21:42:11.489Z,5.40
2023-02-06T21:44:40.052Z,5.70
2023-02-06T21:47:10.037Z,5.20
2023-02-06T21:49:38.823Z,5.30
2023-02-06T21:52:08.652Z,4.78
2023-02-06T21:54:37.210Z,4.50
2023-02-06T21:57:05.917Z,4.38
2023-02-06T21:59:34.431Z,4.60
2023-02-06T22:02:02.874Z,4.75
2023-02-06T22:04:31.458Z,4.70
2023-02-06T22:06:59.935Z,4.57
2023-02-06T22:09:29.829Z,4.43
2023-02-06T22:11:58.337Z,4.72
2023-02-06T22:14:27.295Z,4.18
2023-02-06T22:16:55.841Z,3.80
2023-02-06T22:19:24.633Z,4.25
2023-02-06T22:21:53.323Z,4.40
2023-02-06T22:24:21.901Z,4.53
2023-02-06T22:26:51.731Z,4.43
2023-02-06T22:29:20.168Z,4.60
2023-02-06T22:31:49.298Z,4.55
2023-02-06T22:34:20.281Z,5.75
2023-02-06T22:36:51.340Z,4.78
2023-02-06T22:39:19.968Z,4.78
2023-02-06T22:41:49.275Z,5.20
2023-02-06T22:44:21.535Z,5.30
2023-02-06T22:46:52.431Z,5.10
2023-02-06T22:49:22.498Z,5.35
2023-02-06T22:51:51.360Z,5.03
2023-02-06T22:54:20.118Z,5.57
2023-02-06T22:56:49.082Z,5.78
2023-02-06T22:59:21.465Z,5.65
2023-02-06T23:01:52.608Z,5.75
2023-02-06T23:04:23.590Z,5.40
2023-02-06T23:06:54.286Z,5.15
2023-02-06T23:09:25.543Z,5.68
2023-02-06T23:11:55.334Z,5.53
2023-02-06T23:14:25.783Z,5.07
2023-02-06T23:16:54.580Z,5.32
2023-02-06T23:19:23.200Z,5.05
2023-02-06T23:21:52.336Z,5.47
2023-02-06T23:24:21.500Z,5.03
2023-02-06T23:26:52.333Z,4.82
2023-02-06T23:29:24.374Z,4.43
2023-02-06T23:31:53.389Z,4.78
2023-02-06T23:34:24.484Z,4.75
2023-02-06T23:36:53.380Z,5.00
2023-02-06T23:39:22.138Z,5.03
2023-02-06T23:41:50.827Z,4.78
2023-02-06T23:44:19.814Z,4.70
2023-02-06T23:46:49.693Z,5.22
2023-02-06T23:49:18.277Z,4.32
2023-02-06T23:51:47.120Z,4.22
2023-02-06T23:54:17.434Z,4.07
2023-02-06T23:56:46.265Z,4.22
2023-02-06T23:59:14.771Z,3.80
